createdAt,value
2018-05-25T00:01:20.162Z,3.50
2018-05-25T00:03:48.156Z,3.33
2018-05-25T00:06:16.128Z,3.83
2018-05-25T00:08:44.116Z,3.40
2018-05-25T00:11:12.092Z,3.43
2018-05-25T00:13:39.976Z,3.47
2018-05-25T00:16:07.964Z,3.30
2018-05-25T00:18:35.943Z,3.67
2018-05-25T00:21:03.823Z,3.70
2018-05-25T00:23:31.735Z,3.27
2018-05-25T00:25:59.702Z,3.17
2018-05-25T00:28:27.708Z,3.77
2018-05-25T00:30:55.695Z,3.67
2018-05-25T00:33:23.635Z,3.50
2018-05-25T00:35:51.583Z,3.60
2018-05-25T00:38:19.511Z,3.30
2018-05-25T00:40:48.436Z,3.70
2018-05-25T00:43:16.392Z,3.50
2018-05-25T00:45:44.289Z,3.80
2018-05-25T00:48:12.163Z,3.77
2018-05-25T00:50:40.159Z,4.10
2018-05-25T00:53:08.127Z,3.10
2018-05-25T00:55:38.854Z,3.30
2018-05-25T00:58:06.759Z,3.50
2018-05-25T01:00:34.665Z,3.90
2018-05-25T01:03:02.631Z,3.60
2018-05-25T01:05:30.595Z,3.90
2018-05-25T01:07:58.507Z,3.70
2018-05-25T01:10:26.467Z,3.67
2018-05-25T01:12:54.355Z,3.30
2018-05-25T01:15:22.347Z,3.67
2018-05-25T01:17:50.323Z,5.40
2018-05-25T01:20:18.320Z,4.10
2018-05-25T01:22:46.287Z,3.60
2018-05-25T01:25:14.192Z,4.20
2018-05-25T01:27:42.150Z,4.13
2018-05-25T01:30:10.047Z,3.47
2018-05-25T01:32:37.930Z,3.60
2018-05-25T01:35:05.919Z,4.17
2018-05-25T01:37:33.882Z,3.80
2018-05-25T01:40:01.779Z,3.80
2018-05-25T01:42:29.739Z,3.93
2018-05-25T01:44:57.642Z,4.10
2018-05-25T01:47:25.615Z,4.10
2018-05-25T01:49:53.524Z,3.90
2018-05-25T01:52:21.482Z,4.80
2018-05-25T01:54:49.464Z,4.50
2018-05-25T01:57:17.351Z,4.33
2018-05-25T01:59:45.331Z,4.17
2018-05-25T02:02:13.330Z,4.63
2018-05-25T02:04:41.304Z,4.40
2018-05-25T02:07:09.308Z,3.93
2018-05-25T02:09:37.275Z,5.07
2018-05-25T02:12:05.271Z,4.00
2018-05-25T02:14:33.222Z,4.73
2018-05-25T02:17:01.123Z,4.40
2018-05-25T02:19:29.097Z,4.70
2018-05-25T02:21:57.041Z,5.07
2018-05-25T02:24:24.962Z,4.80
2018-05-25T02:26:52.858Z,4.57
2018-05-25T02:29:20.830Z,4.47
2018-05-25T02:31:48.719Z,4.93
2018-05-25T02:34:16.696Z,4.70
2018-05-25T02:36:44.681Z,4.87
2018-05-25T02:39:12.664Z,4.60
2018-05-25T02:41:40.559Z,4.60
2018-05-25T02:44:08.532Z,4.63
2018-05-25T02:46:36.522Z,4.13
2018-05-25T02:49:05.029Z,3.97
2018-05-25T02:51:33.012Z,4.93
2018-05-25T02:54:00.981Z,4.30
2018-05-25T02:56:28.972Z,4.90
2018-05-25T02:58:56.964Z,4.77
2018-05-25T03:01:24.931Z,4.40
2018-05-25T03:03:52.910Z,4.70
2018-05-25T03:06:20.816Z,4.57
2018-05-25T03:08:48.784Z,4.80
2018-05-25T03:11:16.952Z,5.53
2018-05-25T03:13:44.848Z,4.00
2018-05-25T03:16:12.836Z,5.07
2018-05-25T03:18:40.819Z,4.90
2018-05-25T03:21:08.809Z,5.07
2018-05-25T03:23:36.801Z,5.33
2018-05-25T03:26:04.772Z,5.17
2018-05-25T03:28:32.755Z,5.00
2018-05-25T03:31:00.747Z,4.83
2018-05-25T03:33:28.719Z,4.87
2018-05-25T03:35:56.712Z,5.00
2018-05-25T03:38:24.698Z,4.63
2018-05-25T03:40:52.683Z,4.90
2018-05-25T03:43:20.666Z,5.93
2018-05-25T03:45:48.643Z,4.63
2018-05-25T03:48:16.641Z,5.37
2018-05-25T03:50:44.604Z,5.50
2018-05-25T03:53:12.491Z,5.23
2018-05-25T03:55:40.375Z,5.30
2018-05-25T03:58:08.367Z,5.20
2018-05-25T04:00:42.470Z,5.47
2018-05-25T04:03:11.190Z,5.50
2018-05-25T04:05:39.175Z,5.03
2018-05-25T04:08:07.164Z,6.17
2018-05-25T04:10:35.128Z,5.40
2018-05-25T04:13:03.040Z,5.60
2018-05-25T04:15:30.999Z,5.10
2018-05-25T04:17:58.883Z,5.23
2018-05-25T04:20:26.864Z,5.83
2018-05-25T04:22:54.767Z,5.33
2018-05-25T04:25:22.740Z,5.17
2018-05-25T04:27:50.706Z,5.27
2018-05-25T04:30:18.617Z,5.33
2018-05-25T04:32:46.577Z,5.63
2018-05-25T04:35:14.468Z,5.03
2018-05-25T04:37:42.440Z,5.57
2018-05-25T04:40:10.336Z,5.10
2018-05-25T04:42:38.312Z,5.30
2018-05-25T04:45:06.329Z,5.37
2018-05-25T04:47:34.267Z,5.20
2018-05-25T04:50:02.196Z,4.60
2018-05-25T04:52:30.213Z,5.37
2018-05-25T04:54:58.160Z,5.37
2018-05-25T04:57:26.108Z,5.20
2018-05-25T04:59:54.096Z,5.73
2018-05-25T05:02:21.987Z,5.60
2018-05-25T05:04:49.972Z,5.30
2018-05-25T05:07:17.955Z,6.03
2018-05-25T05:09:46.014Z,6.77
2018-05-25T05:12:14.984Z,5.90
2018-05-25T05:14:42.931Z,5.57
2018-05-25T05:17:10.896Z,7.17
2018-05-25T05:19:38.783Z,6.03
2018-05-25T05:22:06.670Z,6.63
2018-05-25T05:24:34.688Z,5.53
2018-05-25T05:27:02.664Z,5.00
2018-05-25T05:29:30.640Z,5.63
2018-05-25T05:31:58.611Z,6.00
2018-05-25T05:34:26.594Z,5.00
2018-05-25T05:36:54.572Z,5.13
2018-05-25T05:39:22.459Z,5.10
2018-05-25T05:41:50.452Z,4.80
2018-05-25T05:44:18.423Z,6.00
2018-05-25T05:46:46.400Z,4.87
2018-05-25T05:49:15.329Z,5.63
2018-05-25T05:51:43.292Z,5.60
2018-05-25T05:54:11.168Z,5.37
2018-05-25T05:56:39.069Z,5.30
2018-05-25T05:59:07.052Z,5.57
2018-05-25T06:01:35.035Z,5.33
2018-05-25T06:04:03.018Z,4.93
2018-05-25T06:06:30.996Z,5.17
2018-05-25T06:08:58.963Z,5.40
2018-05-25T06:11:26.863Z,5.40
2018-05-25T06:13:54.868Z,5.20
2018-05-25T06:16:22.827Z,4.63
2018-05-25T06:18:50.709Z,5.10
2018-05-25T06:21:18.824Z,4.50
2018-05-25T06:23:46.779Z,4.40
2018-05-25T06:26:14.784Z,5.30
2018-05-25T06:28:42.756Z,4.97
2018-05-25T06:31:10.742Z,4.80
2018-05-25T06:33:38.715Z,5.17
2018-05-25T06:36:06.707Z,4.80
2018-05-25T06:38:35.624Z,5.30
2018-05-25T06:41:18.559Z,5.30
2018-05-25T06:43:46.523Z,4.80
2018-05-25T06:46:14.419Z,5.80
2018-05-25T06:48:42.399Z,4.57
2018-05-25T06:51:10.387Z,4.93
2018-05-25T06:53:38.356Z,4.87
2018-05-25T06:56:06.237Z,4.60
2018-05-25T06:58:34.212Z,4.93
2018-05-25T07:01:02.111Z,4.87
2018-05-25T07:03:30.080Z,4.93
2018-05-25T07:05:57.967Z,4.10
2018-05-25T07:08:25.951Z,4.50
2018-05-25T07:10:53.947Z,4.63
2018-05-25T07:13:21.923Z,4.90
2018-05-25T07:15:49.913Z,4.60
2018-05-25T07:18:17.885Z,4.90
2018-05-25T07:20:45.819Z,4.33
2018-05-25T07:23:13.761Z,4.67
2018-05-25T07:25:41.781Z,4.20
2018-05-25T07:28:09.734Z,5.23
2018-05-25T07:30:37.699Z,4.30
2018-05-25T07:33:05.695Z,5.03
2018-05-25T07:35:33.678Z,5.10
2018-05-25T07:38:01.671Z,4.97
2018-05-25T07:40:29.644Z,4.60
2018-05-25T07:42:57.623Z,5.20
2018-05-25T07:45:25.524Z,4.53
2018-05-25T07:47:53.490Z,4.50
2018-05-25T07:50:21.487Z,4.20
2018-05-25T07:52:49.455Z,4.00
2018-05-25T07:55:17.338Z,4.70
2018-05-25T07:57:45.252Z,4.83
2018-05-25T08:00:13.294Z,4.27
2018-05-25T08:02:48.251Z,4.60
2018-05-25T08:05:16.128Z,4.07
2018-05-25T08:07:44.023Z,4.37
2018-05-25T08:10:12.017Z,4.00
2018-05-25T08:12:39.996Z,3.90
2018-05-25T08:15:07.969Z,3.90
2018-05-25T08:17:35.971Z,4.13
2018-05-25T08:20:04.102Z,4.20
2018-05-25T08:22:32.036Z,3.70
2018-05-25T08:25:00.017Z,4.20
2018-05-25T08:27:27.999Z,4.57
2018-05-25T08:29:56.335Z,3.77
2018-05-25T08:32:24.271Z,4.53
2018-05-25T08:34:52.172Z,5.17
2018-05-25T08:37:20.143Z,3.83
2018-05-25T08:39:48.127Z,4.60
2018-05-25T08:42:16.111Z,4.10
2018-05-25T08:44:44.103Z,4.30
2018-05-25T08:47:12.079Z,3.90
2018-05-25T08:49:40.079Z,3.70
2018-05-25T08:52:09.091Z,3.90
2018-05-25T08:54:37.063Z,4.50
2018-05-25T08:57:05.052Z,4.37
2018-05-25T08:59:33.019Z,3.63
2018-05-25T09:02:01.016Z,4.13
2018-05-25T09:04:28.989Z,4.23
2018-05-25T09:06:56.991Z,3.80
2018-05-25T09:09:24.971Z,3.47
2018-05-25T09:11:52.939Z,3.97
2018-05-25T09:14:20.936Z,3.20
2018-05-25T09:16:48.955Z,3.50
2018-05-25T09:19:16.905Z,3.60
2018-05-25T09:21:44.940Z,3.60
2018-05-25T09:24:12.865Z,3.30
2018-05-25T09:26:40.835Z,3.70
2018-05-25T09:29:08.719Z,3.50
2018-05-25T09:31:36.603Z,3.33
2018-05-25T09:34:04.587Z,4.10
2018-05-25T09:36:32.582Z,4.00
2018-05-25T09:39:00.567Z,4.33
2018-05-25T09:41:28.535Z,3.10
2018-05-25T09:43:56.431Z,3.40
2018-05-25T09:46:24.403Z,3.40
2018-05-25T09:48:52.398Z,3.37
2018-05-25T09:51:20.365Z,3.03
2018-05-25T09:53:48.258Z,3.20
2018-05-25T09:56:17.223Z,3.20
2018-05-25T09:58:47.231Z,2.83
2018-05-25T10:01:15.179Z,3.17
2018-05-25T10:03:43.173Z,4.07
2018-05-25T10:06:11.145Z,3.17
2018-05-25T10:08:39.191Z,3.13
2018-05-25T10:11:07.112Z,2.80
2018-05-25T10:13:35.095Z,3.77
2018-05-25T10:16:03.086Z,3.17
2018-05-25T10:18:31.046Z,3.80
2018-05-25T10:20:58.916Z,2.97
2018-05-25T10:23:26.826Z,3.90
2018-05-25T10:25:54.711Z,3.70
2018-05-25T10:28:22.687Z,3.20
2018-05-25T10:30:50.584Z,3.67
2018-05-25T10:33:18.547Z,3.20
2018-05-25T10:35:46.455Z,3.43
2018-05-25T10:38:14.422Z,3.30
2018-05-25T10:40:42.411Z,3.40
2018-05-25T10:43:10.412Z,2.90
2018-05-25T10:45:38.398Z,3.03
2018-05-25T10:48:06.343Z,3.13
2018-05-25T10:50:34.268Z,3.70
2018-05-25T10:53:02.231Z,3.97
2018-05-25T10:55:30.223Z,3.50
2018-05-25T10:57:58.192Z,3.27
2018-05-25T11:00:26.179Z,3.70
2018-05-25T11:02:54.167Z,3.53
2018-05-25T11:05:22.143Z,3.53
2018-05-25T11:07:50.119Z,3.70
2018-05-25T11:10:18.029Z,3.23
2018-05-25T11:12:46.009Z,3.60
2018-05-25T11:15:14.002Z,3.40
2018-05-25T11:17:41.990Z,3.13
2018-05-25T11:20:09.956Z,4.20
2018-05-25T11:22:39.880Z,3.10
2018-05-25T11:25:07.877Z,3.57
2018-05-25T11:27:36.049Z,3.33
2018-05-25T11:30:04.043Z,3.60
2018-05-25T11:32:32.012Z,3.20
2018-05-25T11:34:59.916Z,3.17
2018-05-25T11:37:27.875Z,4.10
2018-05-25T11:39:55.767Z,3.30
2018-05-25T11:42:23.738Z,2.90
2018-05-25T11:44:51.629Z,3.60
2018-05-25T11:47:19.623Z,3.17
2018-05-25T11:49:47.591Z,3.47
2018-05-25T11:52:15.488Z,3.30
2018-05-25T11:54:43.460Z,2.90
2018-05-25T11:57:11.447Z,2.97
2018-05-25T11:59:39.419Z,3.20
2018-05-25T12:02:07.316Z,3.47
2018-05-25T12:04:35.289Z,3.00
2018-05-25T12:07:03.290Z,3.33
2018-05-25T12:09:31.250Z,3.07
2018-05-25T12:11:59.139Z,3.10
2018-05-25T12:14:27.022Z,3.03
2018-05-25T12:16:55.012Z,2.90
2018-05-25T12:19:23.011Z,3.13
2018-05-25T12:21:50.991Z,3.40
2018-05-25T12:24:18.955Z,3.17
2018-05-25T12:26:46.857Z,3.43
2018-05-25T12:29:14.838Z,3.30
2018-05-25T12:31:42.835Z,2.50
2018-05-25T12:34:10.840Z,3.00
2018-05-25T12:36:38.785Z,3.43
2018-05-25T12:39:06.806Z,2.90
2018-05-25T12:41:34.743Z,2.93
2018-05-25T12:44:02.630Z,2.93
2018-05-25T12:46:30.618Z,3.00
2018-05-25T12:48:58.583Z,2.97
2018-05-25T12:51:26.473Z,3.33
2018-05-25T12:53:54.444Z,3.33
2018-05-25T12:56:37.298Z,3.03
2018-05-25T12:59:05.272Z,3.20
2018-05-25T13:01:33.167Z,3.37
2018-05-25T13:04:01.140Z,3.53
2018-05-25T13:06:29.032Z,2.60
2018-05-25T13:08:57.503Z,3.30
2018-05-25T13:11:25.408Z,3.30
2018-05-25T13:13:53.398Z,2.80
2018-05-25T13:16:21.359Z,3.00
2018-05-25T13:18:49.257Z,2.90
2018-05-25T13:21:18.143Z,2.83
2018-05-25T13:23:46.039Z,2.90
2018-05-25T13:26:13.927Z,3.33
2018-05-25T13:28:41.911Z,3.10
2018-05-25T13:31:09.923Z,3.00
2018-05-25T13:33:37.885Z,3.23
2018-05-25T13:36:05.850Z,2.80
2018-05-25T13:38:33.830Z,2.97
2018-05-25T13:41:01.707Z,3.50
2018-05-25T13:43:29.967Z,3.10
2018-05-25T13:45:57.899Z,2.80
2018-05-25T13:48:25.899Z,3.80
2018-05-25T13:50:53.859Z,2.87
2018-05-25T13:53:21.755Z,3.37
2018-05-25T13:55:49.716Z,2.73
2018-05-25T13:58:17.623Z,3.43
2018-05-25T14:00:45.587Z,3.00
2018-05-25T14:03:13.491Z,2.80
2018-05-25T14:05:41.451Z,2.90
2018-05-25T14:08:09.347Z,3.20
2018-05-25T14:10:37.331Z,3.37
2018-05-25T14:13:05.320Z,2.90
2018-05-25T14:15:33.299Z,3.00
2018-05-25T14:18:01.283Z,3.00
2018-05-25T14:20:29.255Z,2.90
2018-05-25T14:22:57.168Z,2.90
2018-05-25T14:25:25.126Z,3.03
2018-05-25T14:27:53.020Z,2.80
2018-05-25T14:30:21.003Z,2.67
2018-05-25T14:32:48.977Z,2.60
2018-05-25T14:35:16.968Z,2.50
2018-05-25T14:37:44.943Z,3.03
2018-05-25T14:40:12.861Z,3.10
2018-05-25T14:42:40.836Z,2.70
2018-05-25T14:45:08.900Z,2.73
2018-05-25T14:47:36.880Z,2.50
2018-05-25T14:50:04.816Z,2.70
2018-05-25T14:52:32.768Z,2.20
2018-05-25T14:55:00.763Z,2.20
2018-05-25T14:57:28.724Z,2.70
2018-05-25T14:59:56.695Z,2.67
2018-05-25T15:02:24.558Z,2.50
2018-05-25T15:04:53.523Z,2.93
2018-05-25T15:07:21.474Z,2.90
2018-05-25T15:09:49.463Z,2.90
2018-05-25T15:12:17.452Z,2.60
2018-05-25T15:14:45.446Z,2.83
2018-05-25T15:17:13.419Z,2.93
2018-05-25T15:19:41.395Z,3.23
2018-05-25T15:22:09.335Z,3.80
2018-05-25T15:24:37.264Z,3.67
2018-05-25T15:27:05.254Z,3.70
2018-05-25T15:29:33.275Z,3.13
2018-05-25T15:32:01.219Z,3.30
2018-05-25T15:34:29.199Z,3.47
2018-05-25T15:36:57.067Z,3.20
2018-05-25T15:39:25.004Z,3.73
2018-05-25T15:41:52.943Z,3.20
2018-05-25T15:44:20.822Z,2.80
2018-05-25T15:46:48.700Z,2.90
2018-05-25T15:49:29.798Z,2.50
2018-05-25T15:51:57.669Z,2.90
2018-05-25T15:54:25.564Z,3.30
2018-05-25T15:56:53.534Z,3.20
2018-05-25T15:59:21.431Z,3.27
2018-05-25T16:01:49.407Z,3.53
2018-05-25T16:04:17.283Z,3.10
2018-05-25T16:06:45.190Z,3.00
2018-05-25T16:09:13.151Z,3.30
2018-05-25T16:11:41.063Z,3.10
2018-05-25T16:14:09.033Z,2.93
2018-05-25T16:16:37.047Z,3.40
2018-05-25T16:19:04.988Z,2.90
2018-05-25T16:21:32.874Z,2.70
2018-05-25T16:24:00.746Z,2.80
2018-05-25T16:26:28.631Z,3.20
2018-05-25T16:28:56.538Z,2.67
2018-05-25T16:31:24.495Z,2.60
2018-05-25T16:33:52.388Z,2.70
2018-05-25T16:36:20.276Z,2.83
2018-05-25T16:38:50.194Z,2.40
2018-05-25T16:41:18.079Z,2.60
2018-05-25T16:43:46.050Z,3.07
2018-05-25T16:46:13.967Z,2.53
2018-05-25T16:48:41.924Z,2.60
2018-05-25T16:51:09.849Z,2.80
2018-05-25T16:53:37.787Z,2.43
2018-05-25T16:56:06.767Z,2.83
2018-05-25T16:58:34.672Z,2.77
2018-05-25T17:01:02.595Z,2.77
2018-05-25T17:03:30.544Z,3.33
2018-05-25T17:05:58.454Z,3.47
2018-05-25T17:08:26.407Z,2.80
2018-05-25T17:10:54.313Z,2.90
2018-05-25T17:13:22.279Z,2.83
2018-05-25T17:15:50.157Z,2.70
2018-05-25T17:18:18.138Z,3.60
2018-05-25T17:20:46.052Z,3.63
2018-05-25T17:23:14.003Z,3.03
2018-05-25T17:25:41.910Z,3.40
2018-05-25T17:28:11.904Z,2.87
2018-05-25T17:30:39.786Z,3.17
2018-05-25T17:33:09.321Z,3.30
2018-05-25T17:35:37.299Z,3.37
2018-05-25T17:38:05.651Z,3.00
2018-05-25T17:40:33.775Z,3.30
2018-05-25T17:43:03.191Z,3.40
2018-05-25T17:45:32.149Z,3.30
2018-05-25T17:48:01.365Z,3.50
2018-05-25T17:50:29.260Z,3.17
2018-05-25T17:52:57.788Z,3.23
2018-05-25T17:55:25.766Z,3.53
2018-05-25T17:57:53.658Z,3.10
2018-05-25T18:00:21.551Z,3.60
2018-05-25T18:02:49.477Z,2.70
2018-05-25T18:05:17.344Z,3.20
2018-05-25T18:07:45.238Z,3.50
2018-05-25T18:10:13.111Z,3.50
2018-05-25T18:12:40.982Z,3.40
2018-05-25T18:15:09.073Z,3.43
2018-05-25T18:17:36.956Z,3.43
2018-05-25T18:20:04.832Z,3.10
2018-05-25T18:22:32.716Z,3.47
2018-05-25T18:25:00.606Z,3.67
2018-05-25T18:27:28.478Z,3.30
2018-05-25T18:29:56.354Z,3.40
2018-05-25T18:32:24.241Z,3.10
2018-05-25T18:34:52.151Z,3.47
2018-05-25T18:37:20.027Z,3.83
2018-05-25T18:39:48.041Z,3.23
2018-05-25T18:42:15.915Z,3.23
2018-05-25T18:44:43.771Z,3.57
2018-05-25T18:47:11.659Z,3.10
2018-05-25T18:49:39.527Z,3.33
2018-05-25T18:52:07.395Z,3.23
2018-05-25T18:54:35.268Z,3.40
2018-05-25T18:57:03.180Z,3.20
2018-05-25T18:59:31.076Z,3.07
2018-05-25T19:01:58.942Z,3.13
2018-05-25T19:04:26.865Z,3.80
2018-05-25T19:06:54.711Z,3.20
2018-05-25T19:09:22.587Z,3.40
2018-05-25T19:11:50.461Z,2.97
2018-05-25T19:14:18.338Z,3.00
2018-05-25T19:16:46.211Z,3.20
2018-05-25T19:19:14.111Z,3.13
2018-05-25T19:21:41.971Z,3.20
2018-05-25T19:24:09.851Z,3.03
2018-05-25T19:26:37.731Z,3.53
2018-05-25T19:29:05.605Z,2.90
2018-05-25T19:31:33.471Z,3.43
2018-05-25T19:34:01.353Z,3.67
2018-05-25T19:36:29.240Z,3.47
2018-05-25T19:38:57.140Z,4.03
2018-05-25T19:41:26.007Z,2.93
2018-05-25T19:43:53.905Z,2.70
2018-05-25T19:46:21.776Z,2.97
2018-05-25T19:48:49.655Z,3.13
2018-05-25T19:51:17.545Z,2.87
2018-05-25T19:53:45.435Z,3.17
2018-05-25T19:56:14.351Z,3.40
2018-05-25T19:58:42.236Z,2.83
2018-05-25T20:01:10.184Z,3.37
2018-05-25T20:03:38.107Z,3.20
2018-05-25T20:06:05.998Z,2.83
2018-05-25T20:08:33.883Z,3.13
2018-05-25T20:11:03.124Z,2.80
2018-05-25T20:13:31.158Z,2.83
2018-05-25T20:16:14.026Z,2.90
2018-05-25T20:18:41.902Z,2.63
2018-05-25T20:21:09.784Z,3.20
2018-05-25T20:23:37.664Z,3.00
2018-05-25T20:26:05.552Z,2.23
2018-05-25T20:28:33.440Z,2.60
2018-05-25T20:31:01.320Z,2.80
2018-05-25T20:33:29.183Z,2.83
2018-05-25T20:35:57.071Z,2.80
2018-05-25T20:38:24.947Z,2.60
2018-05-25T20:40:52.887Z,2.13
2018-05-25T20:43:20.763Z,2.70
2018-05-25T20:45:48.646Z,2.77
2018-05-25T20:48:16.519Z,3.00
2018-05-25T20:50:44.403Z,3.40
2018-05-25T20:53:12.280Z,2.90
2018-05-25T20:55:40.168Z,2.60
2018-05-25T20:58:08.036Z,2.67
2018-05-25T21:00:35.935Z,2.50
2018-05-25T21:03:03.816Z,2.40
2018-05-25T21:05:31.699Z,2.50
2018-05-25T21:07:59.563Z,2.60
2018-05-25T21:10:27.454Z,2.70
2018-05-25T21:12:55.346Z,2.63
2018-05-25T21:15:23.215Z,3.00
2018-05-25T21:17:51.143Z,2.20
2018-05-25T21:20:19.007Z,2.70
2018-05-25T21:22:46.875Z,2.53
2018-05-25T21:25:14.755Z,2.07
2018-05-25T21:27:42.629Z,2.33
2018-05-25T21:30:10.585Z,2.30
2018-05-25T21:32:40.244Z,2.73
2018-05-25T21:35:08.160Z,3.00
2018-05-25T21:37:36.043Z,2.90
2018-05-25T21:40:04.056Z,2.50
2018-05-25T21:42:32.040Z,2.40
2018-05-25T21:45:00.049Z,2.17
2018-05-25T21:47:27.988Z,2.30
2018-05-25T21:49:55.969Z,2.57
2018-05-25T21:52:24.971Z,2.60
2018-05-25T21:54:52.951Z,2.70
2018-05-25T21:57:20.851Z,2.43
2018-05-25T21:59:48.819Z,2.57
2018-05-25T22:02:16.713Z,2.50
2018-05-25T22:04:44.686Z,2.70
2018-05-25T22:07:12.575Z,2.50
2018-05-25T22:09:40.550Z,2.60
2018-05-25T22:12:08.461Z,2.70
2018-05-25T22:14:36.419Z,2.80
2018-05-25T22:17:04.311Z,2.47
2018-05-25T22:19:32.276Z,2.70
2018-05-25T22:22:00.182Z,2.37
2018-05-25T22:24:28.063Z,2.73
2018-05-25T22:26:56.035Z,2.57
2018-05-25T22:29:24.011Z,2.60
2018-05-25T22:31:53.016Z,2.27
2018-05-25T22:34:21.106Z,2.30
2018-05-25T22:36:49.001Z,2.73
2018-05-25T22:39:16.967Z,3.10
2018-05-25T22:41:48.800Z,2.40
2018-05-25T22:44:22.708Z,2.97
2018-05-25T22:46:56.821Z,3.33
2018-05-25T22:49:30.771Z,2.40
2018-05-25T22:52:04.727Z,2.90
2018-05-25T22:54:38.792Z,2.93
2018-05-25T22:57:07.491Z,2.50
2018-05-25T22:59:35.471Z,2.50
2018-05-25T23:02:03.464Z,2.40
2018-05-25T23:04:31.431Z,2.77
2018-05-25T23:06:59.307Z,2.33
2018-05-25T23:09:27.308Z,2.10
2018-05-25T23:11:55.280Z,2.50
2018-05-25T23:14:23.268Z,2.27
2018-05-25T23:16:51.247Z,2.00
2018-05-25T23:19:19.234Z,2.67
2018-05-25T23:21:47.208Z,2.40
2018-05-25T23:24:15.110Z,2.30
2018-05-25T23:26:43.083Z,2.57
2018-05-25T23:29:11.096Z,3.00
2018-05-25T23:31:39.071Z,2.37
2018-05-25T23:34:07.035Z,2.60
2018-05-25T23:36:35.011Z,2.80
2018-05-25T23:39:02.923Z,2.67
2018-05-25T23:41:30.876Z,3.03
2018-05-25T23:43:58.759Z,2.60
2018-05-25T23:46:26.631Z,2.70
2018-05-25T23:48:54.531Z,2.70
2018-05-25T23:51:22.512Z,3.20
2018-05-25T23:53:50.504Z,2.60
2018-05-25T23:56:18.477Z,2.60
2018-05-25T23:58:46.367Z,2.50
